| time (UTC) | temp C | wind direction | speed KPH | gust KPH | rain 1hr cm | rain 24hr cm | rain mn cm | humidity % | barometer mb |
| 20260507121346 | 23 | 12 | 3.2 | 3.2 | 0.00 | 0.00 | 0.00 | 21 | 1016.6 |
| 20260507120845 | 23 | 111 | 0.0 | 0.0 | 0.00 | 0.00 | 0.00 | 21 | 1016.9 |
| 20260507120344 | 23 | 316 | 0.0 | 0.0 | 0.00 | 0.00 | 0.00 | 22 | 1016.9 |
| 20260507115845 | 23 | 51 | 1.6 | 1.6 | 0.00 | 0.00 | 0.00 | 22 | 1016.9 |
| 20260507115345 | 22 | 69 | 4.8 | 8.0 | 0.00 | 0.00 | 0.00 | 23 | 1016.9 |
| 20260507114844 | 23 | 68 | 6.4 | 8.0 | 0.00 | 0.00 | 0.00 | 22 | 1016.9 |
| 20260507114346 | 23 | 266 | 1.6 | 1.6 | 0.00 | 0.00 | 0.00 | 22 | 1016.9 |
| 20260507113851 | 23 | 83 | 8.0 | 9.7 | 0.00 | 0.00 | 0.00 | 23 | 1017.3 |
| 20260507113345 | 23 | 70 | 4.8 | 4.8 | 0.00 | 0.00 | 0.00 | 23 | 1017.3 |
| 20260507112845 | 23 | 3 | 0.0 | 0.0 | 0.00 | 0.00 | 0.00 | 23 | 1017.3 |
| 20260507112344 | 23 | 44 | 1.6 | 1.6 | 0.00 | 0.00 | 0.00 | 22 | 1017.3 |
| 20260507111844 | 24 | 61 | 1.6 | 1.6 | 0.00 | 0.00 | 0.00 | 22 | 1017.6 |
| 20260507111344 | 24 | 290 | 0.0 | 0.0 | 0.00 | 0.00 | 0.00 | 21 | 1017.3 |
| 20260507110845 | 24 | 341 | 1.6 | 1.6 | 0.00 | 0.00 | 0.00 | 23 | 1017.6 |
| 20260507110345 | 23 | 72 | 0.0 | 0.0 | 0.00 | 0.00 | 0.00 | 23 | 1017.6 |
| 20260507105845 | 23 | 246 | 1.6 | 3.2 | 0.00 | 0.00 | 0.00 | 24 | 1017.3 |
| 20260507105344 | 23 | 29 | 1.6 | 1.6 | 0.00 | 0.00 | 0.00 | 25 | 1017.6 |
| 20260507104845 | 22 | 76 | 1.6 | 1.6 | 0.00 | 0.00 | 0.00 | 26 | 1017.6 |
| 20260507104345 | 22 | 278 | 3.2 | 3.2 | 0.00 | 0.00 | 0.00 | 26 | 1017.6 |
| 20260507103844 | 22 | 284 | 3.2 | 3.2 | 0.00 | 0.00 | 0.00 | 26 | 1017.6 |
| 20260507103350 | 23 | 38 | 6.4 | 8.0 | 0.00 | 0.00 | 0.00 | 26 | 1017.9 |
| 20260507102846 | 23 | 37 | 1.6 | 1.6 | 0.00 | 0.00 | 0.00 | 26 | 1017.6 |
| 20260507102345 | 22 | 129 | 0.0 | 0.0 | 0.00 | 0.00 | 0.00 | 26 | 1017.6 |
| 20260507101844 | 22 | 30 | 0.0 | 0.0 | 0.00 | 0.00 | 0.00 | 27 | 1017.9 |
| 20260507101344 | 22 | 63 | 8.0 | 11.3 | 0.00 | 0.00 | 0.00 | 26 | 1017.9 |
| 20260507100844 | 22 | 353 | 1.6 | 1.6 | 0.00 | 0.00 | 0.00 | 28 | 1017.9 |
| 20260507100344 | 21 | 287 | 3.2 | 3.2 | 0.00 | 0.00 | 0.00 | 27 | 1017.9 |
| 20260507095845 | 21 | 64 | 0.0 | 0.0 | 0.00 | 0.00 | 0.00 | 27 | 1017.9 |
| 20260507095344 | 21 | 46 | 6.4 | 9.7 | 0.00 | 0.00 | 0.00 | 28 | 1017.9 |
| 20260507094846 | 21 | 13 | 3.2 | 3.2 | 0.00 | 0.00 | 0.00 | 30 | 1017.9 |
| 20260507094345 | 21 | 359 | 1.6 | 1.6 | 0.00 | 0.00 | 0.00 | 31 | 1017.9 |
| 20260507093845 | 21 | 346 | 1.6 | 1.6 | 0.00 | 0.00 | 0.00 | 31 | 1018.3 |
| 20260507093344 | 21 | 84 | 3.2 | 3.2 | 0.00 | 0.00 | 0.00 | 32 | 1018.3 |
| 20260507092844 | 21 | 24 | 4.8 | 4.8 | 0.00 | 0.00 | 0.00 | 31 | 1018.3 |
| 20260507092345 | 21 | 75 | 1.6 | 3.2 | 0.00 | 0.00 | 0.00 | 29 | 1018.6 |
| 20260507091845 | 21 | 256 | 4.8 | 4.8 | 0.00 | 0.00 | 0.00 | 31 | 1018.6 |
| 20260507091345 | 21 | 86 | 1.6 | 1.6 | 0.00 | 0.00 | 0.00 | 32 | 1018.6 |
| 20260507090844 | 20 | 61 | 3.2 | 3.2 | 0.00 | 0.00 | 0.00 | 35 | 1018.3 |
| 20260507090344 | 20 | 70 | 6.4 | 9.7 | 0.00 | 0.00 | 0.00 | 34 | 1018.6 |
| 20260507085844 | 20 | 63 | 6.4 | 8.0 | 0.00 | 0.00 | 0.00 | 33 | 1019.0 |
| 20260507085345 | 20 | 62 | 6.4 | 11.3 | 0.00 | 0.00 | 0.00 | 34 | 1018.6 |
| 20260507084845 | 20 | 243 | 3.2 | 4.8 | 0.00 | 0.00 | 0.00 | 35 | 1018.6 |
| 20260507084345 | 20 | 9 | 4.8 | 3.2 | 0.00 | 0.00 | 0.00 | 34 | 1019.0 |
| 20260507083846 | 20 | 20 | 1.6 | 1.6 | 0.00 | 0.00 | 0.00 | 34 | 1019.0 |
| 20260507083345 | 20 | 325 | 1.6 | 3.2 | 0.00 | 0.00 | 0.00 | 35 | 1019.0 |
| 20260507082844 | 20 | 1 | 1.6 | 1.6 | 0.00 | 0.00 | 0.00 | 35 | 1018.6 |
| 20260507082344 | 20 | 77 | 3.2 | 4.8 | 0.00 | 0.00 | 0.00 | 37 | 1019.3 |
| 20260507081845 | 19 | 331 | 1.6 | 1.6 | 0.00 | 0.00 | 0.00 | 38 | 1019.3 |
| 20260507081345 | 19 | 54 | 14.5 | 17.7 | 0.00 | 0.00 | 0.00 | 37 | 1019.0 |
| 20260507080844 | 19 | 58 | 1.6 | 1.6 | 0.00 | 0.00 | 0.00 | 38 | 1019.3 |
| 20260507080344 | 19 | 341 | 6.4 | 8.0 | 0.00 | 0.00 | 0.00 | 37 | 1019.3 |
| 20260507075845 | 20 | 119 | 1.6 | 3.2 | 0.00 | 0.00 | 0.00 | 35 | 1019.0 |
| 20260507075344 | 20 | 54 | 8.0 | 9.7 | 0.00 | 0.00 | 0.00 | 36 | 1019.0 |
| 20260507074845 | 20 | 173 | 3.2 | 4.8 | 0.00 | 0.00 | 0.00 | 36 | 1019.0 |
| 20260507074344 | 20 | 315 | 4.8 | 4.8 | 0.00 | 0.00 | 0.00 | 38 | 1019.3 |
| 20260507073844 | 19 | 50 | 0.0 | 0.0 | 0.00 | 0.00 | 0.00 | 39 | 1019.3 |
| 20260507073345 | 18 | 260 | 1.6 | 1.6 | 0.00 | 0.00 | 0.00 | 41 | 1019.0 |
| 20260507072845 | 18 | 53 | 3.2 | 4.8 | 0.00 | 0.00 | 0.00 | 40 | 1019.0 |
| 20260507072344 | 19 | 65 | 6.4 | 8.0 | 0.00 | 0.00 | 0.00 | 41 | 1019.0 |
| 20260507071844 | 19 | 71 | 1.6 | 1.6 | 0.00 | 0.00 | 0.00 | 40 | 1019.0 |
| 20260507071344 | 19 | 63 | 3.2 | 3.2 | 0.00 | 0.00 | 0.00 | 39 | 1019.0 |
| 20260507070844 | 19 | 20 | 0.0 | 0.0 | 0.00 | 0.00 | 0.00 | 40 | 1019.0 |
| 20260507070344 | 18 | 70 | 0.0 | 0.0 | 0.00 | 0.00 | 0.00 | 41 | 1019.3 |
| 20260507065845 | 19 | 73 | 3.2 | 4.8 | 0.00 | 0.00 | 0.00 | 40 | 1019.0 |
| 20260507065344 | 18 | 281 | 1.6 | 1.6 | 0.00 | 0.00 | 0.00 | 41 | 1019.0 |
| 20260507064844 | 18 | 11 | 1.6 | 1.6 | 0.00 | 0.00 | 0.00 | 41 | 1019.0 |
| 20260507064345 | 18 | 71 | 1.6 | 1.6 | 0.00 | 0.00 | 0.00 | 40 | 1019.0 |
| 20260507063844 | 18 | 120 | 1.6 | 1.6 | 0.00 | 0.00 | 0.00 | 41 | 1019.0 |
| 20260507063346 | 17 | 106 | 4.8 | 8.0 | 0.00 | 0.00 | 0.00 | 40 | 1019.0 |
| 20260507062845 | 18 | 66 | 3.2 | 3.2 | 0.00 | 0.00 | 0.00 | 41 | 1019.3 |
| 20260507062344 | 18 | 254 | 1.6 | 1.6 | 0.00 | 0.00 | 0.00 | 41 | 1019.0 |
| 20260507061844 | 18 | 68 | 0.0 | 0.0 | 0.00 | 0.00 | 0.00 | 41 | 1019.0 |
| 20260507061344 | 17 | 336 | 1.6 | 1.6 | 0.00 | 0.00 | 0.00 | 41 | 1019.0 |
| 20260507060844 | 17 | 100 | 1.6 | 1.6 | 0.00 | 0.00 | 0.00 | 42 | 1019.0 |
| 20260507060344 | 17 | 69 | 4.8 | 4.8 | 0.00 | 0.00 | 0.00 | 40 | 1019.0 |
| 20260507055845 | 17 | 63 | 1.6 | 1.6 | 0.00 | 0.00 | 0.00 | 44 | 1019.0 |
| 20260507055344 | 17 | 59 | 1.6 | 1.6 | 0.00 | 0.00 | 0.00 | 45 | 1019.0 |
| 20260507054844 | 17 | 211 | 1.6 | 4.8 | 0.00 | 0.00 | 0.00 | 46 | 1019.0 |
| 20260507054345 | 17 | 280 | 1.6 | 1.6 | 0.00 | 0.00 | 0.00 | 48 | 1018.6 |
| 20260507053844 | 17 | 49 | 1.6 | 1.6 | 0.00 | 0.00 | 0.00 | 49 | 1019.0 |
| 20260507053344 | 17 | 57 | 0.0 | 0.0 | 0.00 | 0.00 | 0.00 | 49 | 1019.3 |
| 20260507052845 | 17 | 28 | 1.6 | 1.6 | 0.00 | 0.00 | 0.00 | 48 | 1019.0 |
| 20260507052344 | 17 | 108 | 0.0 | 0.0 | 0.00 | 0.00 | 0.00 | 48 | 1019.0 |
| 20260507051845 | 16 | 81 | 0.0 | 0.0 | 0.00 | 0.00 | 0.00 | 50 | 1019.0 |
| 20260507051351 | 16 | 85 | 1.6 | 0.0 | 0.00 | 0.00 | 0.00 | 50 | 1019.0 |
| 20260507050845 | 16 | 57 | 0.0 | 0.0 | 0.00 | 0.00 | 0.00 | 51 | 1018.6 |
| 20260507050345 | 16 | 77 | 1.6 | 3.2 | 0.00 | 0.00 | 0.00 | 52 | 1018.6 |
| 20260507045845 | 16 | 53 | 1.6 | 1.6 | 0.00 | 0.00 | 0.00 | 52 | 1018.6 |
| 20260507045345 | 16 | 41 | 1.6 | 1.6 | 0.00 | 0.00 | 0.00 | 54 | 1018.6 |
| 20260507044844 | 16 | 46 | 0.0 | 0.0 | 0.00 | 0.00 | 0.00 | 53 | 1018.6 |
| 20260507044345 | 16 | 82 | 0.0 | 0.0 | 0.00 | 0.00 | 0.00 | 53 | 1018.6 |
| 20260507043844 | 15 | 78 | 1.6 | 3.2 | 0.00 | 0.00 | 0.00 | 55 | 1018.6 |
| 20260507043344 | 15 | 101 | 0.0 | 0.0 | 0.00 | 0.00 | 0.00 | 55 | 1018.6 |
| 20260507042844 | 15 | 102 | 0.0 | 0.0 | 0.00 | 0.00 | 0.00 | 55 | 1019.0 |
| 20260507042344 | 15 | 103 | 0.0 | 0.0 | 0.00 | 0.00 | 0.00 | 56 | 1018.6 |
| 20260507041844 | 15 | 112 | 0.0 | 0.0 | 0.00 | 0.00 | 0.00 | 55 | 1018.6 |
| 20260507040927 | 14 | 113 | 0.0 | 0.0 | 0.00 | 0.00 | 0.00 | 59 | 1018.6 |
| 20260507040344 | 14 | 112 | 0.0 | 0.0 | 0.00 | 0.00 | 0.00 | 60 | 1018.6 |
| 20260507035845 | 14 | 112 | 0.0 | 0.0 | 0.00 | 0.00 | 0.00 | 60 | 1018.3 |
| 20260507035344 | 14 | 112 | 0.0 | 0.0 | 0.00 | 0.00 | 0.00 | 60 | 1018.3 |
| 20260507034845 | 14 | 112 | 0.0 | 0.0 | 0.00 | 0.00 | 0.00 | 61 | 1018.3 |
| 20260507034344 | 13 | 112 | 0.0 | 0.0 | 0.00 | 0.00 | 0.00 | 61 | 1018.3 |
| 20260507033844 | 13 | 103 | 0.0 | 0.0 | 0.00 | 0.00 | 0.00 | 62 | 1017.9 |
| 20260507033344 | 13 | 99 | 0.0 | 0.0 | 0.00 | 0.00 | 0.00 | 63 | 1018.3 |
| 20260507032845 | 13 | 94 | 0.0 | 0.0 | 0.00 | 0.00 | 0.00 | 64 | 1017.9 |
| 20260507032344 | 13 | 94 | 0.0 | 0.0 | 0.00 | 0.00 | 0.00 | 65 | 1017.9 |
| 20260507031844 | 12 | 94 | 0.0 | 0.0 | 0.00 | 0.00 | 0.00 | 66 | 1017.9 |
| 20260507031345 | 12 | 92 | 0.0 | 0.0 | 0.00 | 0.00 | 0.00 | 67 | 1018.3 |
| 20260507030844 | 12 | 93 | 0.0 | 0.0 | 0.00 | 0.00 | 0.00 | 69 | 1017.9 |
| 20260507030345 | 11 | 92 | 0.0 | 0.0 | 0.00 | 0.00 | 0.00 | 70 | 1017.9 |
| 20260507025845 | 11 | 92 | 0.0 | 0.0 | 0.00 | 0.00 | 0.00 | 70 | 1017.9 |
| 20260507025344 | 11 | 92 | 0.0 | 0.0 | 0.00 | 0.00 | 0.00 | 71 | 1017.9 |
| 20260507024845 | 11 | 92 | 0.0 | 0.0 | 0.00 | 0.00 | 0.00 | 71 | 1017.9 |
| 20260507024345 | 11 | 92 | 0.0 | 0.0 | 0.00 | 0.00 | 0.00 | 71 | 1017.9 |
| 20260507023846 | 11 | 91 | 0.0 | 0.0 | 0.00 | 0.00 | 0.00 | 71 | 1017.9 |
| 20260507023345 | 11 | 91 | 0.0 | 0.0 | 0.00 | 0.00 | 0.00 | 70 | 1017.9 |
| 20260507022846 | 11 | 91 | 0.0 | 0.0 | 0.00 | 0.00 | 0.00 | 70 | 1017.9 |
| 20260507022344 | 11 | 91 | 0.0 | 0.0 | 0.00 | 0.00 | 0.00 | 70 | 1017.9 |
| 20260507021845 | 11 | 91 | 0.0 | 0.0 | 0.00 | 0.00 | 0.00 | 70 | 1017.9 |
| 20260507021344 | 11 | 91 | 0.0 | 0.0 | 0.00 | 0.00 | 0.00 | 70 | 1017.9 |
| 20260507020844 | 11 | 91 | 0.0 | 0.0 | 0.00 | 0.00 | 0.00 | 71 | 1017.6 |
| 20260507020345 | 11 | 91 | 0.0 | 0.0 | 0.00 | 0.00 | 0.00 | 71 | 1017.6 |
| 20260507015844 | 11 | 91 | 0.0 | 0.0 | 0.00 | 0.00 | 0.00 | 71 | 1017.9 |
| 20260507015344 | 11 | 91 | 0.0 | 0.0 | 0.00 | 0.00 | 0.00 | 70 | 1017.9 |
| 20260507014844 | 11 | 91 | 0.0 | 0.0 | 0.00 | 0.00 | 0.00 | 70 | 1017.9 |
| 20260507014344 | 11 | 91 | 0.0 | 0.0 | 0.00 | 0.00 | 0.00 | 70 | 1017.9 |
| 20260507013844 | 12 | 91 | 0.0 | 0.0 | 0.00 | 0.00 | 0.00 | 69 | 1017.6 |
| 20260507013344 | 12 | 92 | 0.0 | 0.0 | 0.00 | 0.00 | 0.00 | 69 | 1017.9 |
| 20260507012845 | 12 | 92 | 0.0 | 0.0 | 0.00 | 0.00 | 0.00 | 69 | 1017.9 |
| 20260507012344 | 11 | 92 | 0.0 | 0.0 | 0.00 | 0.00 | 0.00 | 69 | 1017.6 |
| 20260507011844 | 11 | 90 | 0.0 | 0.0 | 0.00 | 0.00 | 0.00 | 69 | 1017.6 |
| 20260507011346 | 11 | 90 | 0.0 | 0.0 | 0.00 | 0.00 | 0.00 | 69 | 1017.9 |
| 20260507010845 | 11 | 90 | 0.0 | 0.0 | 0.00 | 0.00 | 0.00 | 69 | 1017.6 |
| 20260507010344 | 11 | 91 | 0.0 | 0.0 | 0.00 | 0.00 | 0.00 | 70 | 1017.6 |
| 20260507005844 | 11 | 69 | 0.0 | 0.0 | 0.00 | 0.00 | 0.00 | 71 | 1017.6 |
| 20260507005346 | 11 | 69 | 0.0 | 0.0 | 0.00 | 0.00 | 0.00 | 71 | 1017.6 |
| 20260507004845 | 12 | 69 | 0.0 | 0.0 | 0.00 | 0.00 | 0.00 | 71 | 1017.6 |
| 20260507004345 | 12 | 69 | 0.0 | 0.0 | 0.00 | 0.00 | 0.00 | 70 | 1017.6 |
| 20260507003845 | 12 | 73 | 0.0 | 0.0 | 0.00 | 0.00 | 0.00 | 70 | 1017.6 |
| 20260507003345 | 12 | 75 | 0.0 | 0.0 | 0.00 | 0.00 | 0.00 | 69 | 1017.9 |
| 20260507002844 | 12 | 75 | 0.0 | 0.0 | 0.00 | 0.00 | 0.00 | 69 | 1017.6 |
| 20260507002345 | 12 | 74 | 0.0 | 0.0 | 0.00 | 0.00 | 0.00 | 68 | 1017.6 |
| 20260507001844 | 12 | 76 | 0.0 | 0.0 | 0.00 | 0.00 | 0.00 | 68 | 1017.6 |
| 20260507001347 | 12 | 73 | 0.0 | 0.0 | 0.00 | 0.00 | 0.00 | 67 | 1017.6 |
| 20260507000845 | 12 | 73 | 0.0 | 0.0 | 0.00 | 0.00 | 0.00 | 67 | 1017.3 |
| 20260507000344 | 12 | 73 | 0.0 | 0.0 | 0.00 | 0.00 | 0.00 | 66 | 1017.3 |
| 20260506235848 | 12 | 74 | 0.0 | 0.0 | 0.00 | 0.00 | 0.00 | 66 | 1017.6 |
| 20260506235346 | 12 | 74 | 0.0 | 0.0 | 0.00 | 0.00 | 0.00 | 65 | 1017.6 |
| 20260506234844 | 12 | 74 | 0.0 | 0.0 | 0.00 | 0.00 | 0.00 | 64 | 1017.3 |
| 20260506234345 | 13 | 70 | 0.0 | 0.0 | 0.00 | 0.00 | 0.00 | 63 | 1017.3 |
| 20260506233844 | 13 | 70 | 1.6 | 1.6 | 0.00 | 0.00 | 0.00 | 62 | 1017.3 |
| 20260506233347 | 13 | 80 | 1.6 | 1.6 | 0.00 | 0.00 | 0.00 | 62 | 1017.3 |
| 20260506232845 | 13 | 95 | 1.6 | 1.6 | 0.00 | 0.00 | 0.00 | 62 | 1017.3 |
| 20260506232345 | 13 | 72 | 1.6 | 1.6 | 0.00 | 0.00 | 0.00 | 62 | 1017.3 |
| 20260506231845 | 13 | 336 | 1.6 | 3.2 | 0.00 | 0.00 | 0.00 | 62 | 1017.3 |
| 20260506231344 | 13 | 338 | 1.6 | 3.2 | 0.00 | 0.00 | 0.00 | 61 | 1017.3 |
| 20260506230846 | 13 | 81 | 1.6 | 1.6 | 0.00 | 0.00 | 0.00 | 61 | 1017.6 |
| 20260506230345 | 13 | 83 | 1.6 | 3.2 | 0.00 | 0.00 | 0.00 | 61 | 1017.3 |
| 20260506225845 | 13 | 69 | 1.6 | 1.6 | 0.00 | 0.00 | 0.00 | 60 | 1017.3 |
| 20260506225344 | 13 | 61 | 1.6 | 1.6 | 0.00 | 0.00 | 0.00 | 60 | 1017.3 |
| 20260506224844 | 13 | 75 | 1.6 | 1.6 | 0.00 | 0.00 | 0.00 | 60 | 1017.3 |
| 20260506224345 | 13 | 64 | 1.6 | 0.0 | 0.00 | 0.00 | 0.00 | 60 | 1017.3 |
| 20260506223844 | 13 | 78 | 3.2 | 3.2 | 0.00 | 0.00 | 0.00 | 60 | 1017.3 |
| 20260506223345 | 13 | 70 | 1.6 | 1.6 | 0.00 | 0.00 | 0.00 | 60 | 1017.3 |
| 20260506222845 | 13 | 80 | 0.0 | 0.0 | 0.00 | 0.00 | 0.00 | 61 | 1017.3 |
| 20260506222344 | 13 | 81 | 0.0 | 0.0 | 0.00 | 0.00 | 0.00 | 61 | 1017.6 |
| 20260506221844 | 13 | 81 | 1.6 | 1.6 | 0.00 | 0.00 | 0.00 | 62 | 1017.3 |
| 20260506221344 | 13 | 85 | 0.0 | 0.0 | 0.00 | 0.00 | 0.00 | 63 | 1017.3 |
| 20260506220844 | 13 | 85 | 0.0 | 0.0 | 0.00 | 0.00 | 0.00 | 63 | 1017.3 |
| 20260506220344 | 13 | 85 | 0.0 | 0.0 | 0.00 | 0.00 | 0.00 | 63 | 1017.6 |
| 20260506215844 | 13 | 84 | 1.6 | 3.2 | 0.00 | 0.00 | 0.00 | 62 | 1017.3 |
| 20260506215346 | 13 | 64 | 0.0 | 0.0 | 0.00 | 0.00 | 0.00 | 61 | 1017.3 |
| 20260506214845 | 13 | 84 | 1.6 | 1.6 | 0.00 | 0.00 | 0.00 | 61 | 1017.6 |
| 20260506214344 | 13 | 84 | 0.0 | 0.0 | 0.00 | 0.00 | 0.00 | 60 | 1017.6 |
| 20260506213844 | 13 | 70 | 1.6 | 1.6 | 0.00 | 0.00 | 0.00 | 60 | 1017.6 |
| 20260506213345 | 13 | 89 | 1.6 | 1.6 | 0.00 | 0.00 | 0.00 | 60 | 1017.3 |
| 20260506212845 | 13 | 68 | 1.6 | 1.6 | 0.00 | 0.00 | 0.00 | 60 | 1017.6 |
| 20260506212344 | 13 | 77 | 0.0 | 1.6 | 0.00 | 0.00 | 0.00 | 60 | 1017.6 |
| 20260506211847 | 13 | 81 | 0.0 | 0.0 | 0.00 | 0.00 | 0.00 | 60 | 1017.9 |
| 20260506211344 | 14 | 75 | 1.6 | 0.0 | 0.00 | 0.00 | 0.00 | 59 | 1017.9 |
| 20260506210844 | 14 | 80 | 1.6 | 1.6 | 0.00 | 0.00 | 0.00 | 60 | 1017.6 |
| 20260506210345 | 14 | 77 | 1.6 | 1.6 | 0.00 | 0.00 | 0.00 | 60 | 1017.9 |
| 20260506205844 | 13 | 75 | 0.0 | 0.0 | 0.00 | 0.00 | 0.00 | 60 | 1017.6 |
| 20260506205344 | 13 | 76 | 0.0 | 0.0 | 0.00 | 0.00 | 0.00 | 61 | 1017.6 |
| 20260506204848 | 13 | 76 | 0.0 | 0.0 | 0.00 | 0.00 | 0.00 | 61 | 1017.6 |
| 20260506204348 | 14 | 76 | 0.0 | 0.0 | 0.00 | 0.00 | 0.00 | 60 | 1017.6 |
| 20260506203845 | 14 | 75 | 1.6 | 1.6 | 0.00 | 0.00 | 0.00 | 60 | 1017.6 |
| 20260506203344 | 14 | 73 | 0.0 | 0.0 | 0.00 | 0.00 | 0.00 | 60 | 1017.6 |
| 20260506202845 | 14 | 72 | 0.0 | 0.0 | 0.00 | 0.00 | 0.00 | 60 | 1017.6 |
| 20260506202345 | 14 | 95 | 0.0 | 0.0 | 0.00 | 0.00 | 0.00 | 59 | 1017.6 |
| 20260506201845 | 14 | 95 | 0.0 | 0.0 | 0.00 | 0.00 | 0.00 | 59 | 1017.6 |
| 20260506201345 | 14 | 24 | 0.0 | 0.0 | 0.00 | 0.00 | 0.00 | 59 | 1017.6 |
| 20260506200844 | 14 | 20 | 1.6 | 1.6 | 0.00 | 0.00 | 0.00 | 58 | 1017.6 |
| 20260506200345 | 14 | 54 | 1.6 | 1.6 | 0.00 | 0.00 | 0.00 | 58 | 1017.6 |
| 20260506195844 | 15 | 66 | 4.8 | 4.8 | 0.00 | 0.00 | 0.00 | 58 | 1017.6 |
| 20260506195346 | 15 | 77 | 1.6 | 1.6 | 0.00 | 0.00 | 0.00 | 57 | 1017.3 |
| 20260506194844 | 14 | 77 | 0.0 | 0.0 | 0.00 | 0.00 | 0.00 | 57 | 1017.6 |
| 20260506194345 | 14 | 95 | 3.2 | 3.2 | 0.00 | 0.00 | 0.00 | 58 | 1017.6 |
| 20260506193844 | 14 | 132 | 0.0 | 0.0 | 0.00 | 0.00 | 0.00 | 58 | 1017.6 |
| 20260506193345 | 15 | 134 | 0.0 | 0.0 | 0.00 | 0.00 | 0.00 | 58 | 1017.3 |
| 20260506192845 | 14 | 134 | 0.0 | 0.0 | 0.00 | 0.00 | 0.00 | 57 | 1017.6 |
| 20260506192345 | 14 | 93 | 3.2 | 4.8 | 0.00 | 0.00 | 0.00 | 58 | 1017.3 |
| 20260506191845 | 14 | 189 | 1.6 | 1.6 | 0.00 | 0.00 | 0.00 | 58 | 1017.3 |
| 20260506191344 | 15 | 182 | 1.6 | 3.2 | 0.00 | 0.00 | 0.00 | 57 | 1017.3 |
| 20260506190845 | 15 | 324 | 0.0 | 0.0 | 0.00 | 0.00 | 0.00 | 57 | 1017.3 |
| 20260506190344 | 15 | 230 | 3.2 | 8.0 | 0.00 | 0.00 | 0.00 | 57 | 1017.3 |
| 20260506185844 | 15 | 130 | 4.8 | 8.0 | 0.00 | 0.00 | 0.00 | 57 | 1017.3 |
| 20260506185345 | 15 | 233 | 4.8 | 11.3 | 0.00 | 0.00 | 0.00 | 56 | 1017.3 |
| 20260506184845 | 15 | 233 | 3.2 | 8.0 | 0.00 | 0.00 | 0.00 | 56 | 1017.3 |
| 20260506184344 | 15 | 303 | 3.2 | 8.0 | 0.00 | 0.00 | 0.00 | 55 | 1017.3 |
| 20260506183845 | 15 | 81 | 3.2 | 3.2 | 0.00 | 0.00 | 0.00 | 55 | 1017.3 |
| 20260506183345 | 15 | 331 | 3.2 | 3.2 | 0.00 | 0.00 | 0.00 | 54 | 1017.3 |
| 20260506182844 | 15 | 242 | 3.2 | 4.8 | 0.00 | 0.00 | 0.00 | 54 | 1017.3 |
| 20260506182346 | 15 | 84 | 1.6 | 1.6 | 0.00 | 0.00 | 0.00 | 54 | 1016.9 |
| 20260506181845 | 15 | 218 | 1.6 | 3.2 | 0.00 | 0.00 | 0.00 | 53 | 1016.9 |
| 20260506181345 | 15 | 104 | 0.0 | 0.0 | 0.00 | 0.00 | 0.00 | 53 | 1016.9 |
| 20260506180845 | 15 | 42 | 1.6 | 1.6 | 0.00 | 0.00 | 0.00 | 53 | 1016.9 |
| 20260506180345 | 15 | 256 | 0.0 | 1.6 | 0.00 | 0.00 | 0.00 | 53 | 1016.9 |
| 20260506175844 | 15 | 220 | 1.6 | 1.6 | 0.00 | 0.00 | 0.00 | 53 | 1016.9 |
| 20260506175344 | 15 | 208 | 1.6 | 0.0 | 0.00 | 0.00 | 0.00 | 56 | 1016.9 |
| 20260506174844 | 15 | 231 | 1.6 | 3.2 | 0.00 | 0.00 | 0.00 | 56 | 1016.6 |
| 20260506174345 | 15 | 208 | 0.0 | 0.0 | 0.00 | 0.00 | 0.00 | 55 | 1016.6 |
| 20260506173848 | 16 | 192 | 1.6 | 3.2 | 0.00 | 0.00 | 0.00 | 54 | 1016.6 |
| 20260506173345 | 16 | 210 | 1.6 | 1.6 | 0.00 | 0.00 | 0.00 | 54 | 1016.6 |
| 20260506172845 | 16 | 198 | 1.6 | 1.6 | 0.00 | 0.00 | 0.00 | 53 | 1016.6 |
| 20260506172344 | 16 | 221 | 1.6 | 1.6 | 0.00 | 0.00 | 0.00 | 53 | 1016.3 |
| 20260506171844 | 16 | 217 | 0.0 | 0.0 | 0.00 | 0.00 | 0.00 | 52 | 1016.6 |
| 20260506171344 | 16 | 233 | 0.0 | 0.0 | 0.00 | 0.00 | 0.00 | 52 | 1016.3 |
| 20260506170845 | 16 | 209 | 1.6 | 1.6 | 0.00 | 0.00 | 0.00 | 51 | 1016.3 |
| 20260506170345 | 16 | 232 | 0.0 | 1.6 | 0.00 | 0.00 | 0.00 | 51 | 1016.3 |
| 20260506165845 | 16 | 261 | 1.6 | 1.6 | 0.00 | 0.00 | 0.00 | 50 | 1016.3 |
| 20260506165345 | 16 | 83 | 1.6 | 1.6 | 0.00 | 0.00 | 0.00 | 50 | 1016.3 |
| 20260506164845 | 16 | 227 | 1.6 | 3.2 | 0.00 | 0.00 | 0.00 | 50 | 1016.3 |
| 20260506164346 | 16 | 223 | 0.0 | 0.0 | 0.00 | 0.00 | 0.00 | 49 | 1016.3 |
| 20260506163844 | 17 | 224 | 1.6 | 3.2 | 0.00 | 0.00 | 0.00 | 49 | 1015.9 |
| 20260506163346 | 17 | 242 | 0.0 | 1.6 | 0.00 | 0.00 | 0.00 | 48 | 1015.9 |
| 20260506162844 | 17 | 203 | 1.6 | 1.6 | 0.00 | 0.00 | 0.00 | 48 | 1015.9 |
| 20260506162344 | 17 | 274 | 0.0 | 0.0 | 0.00 | 0.00 | 0.00 | 48 | 1015.9 |
| 20260506161844 | 17 | 210 | 1.6 | 0.0 | 0.00 | 0.00 | 0.00 | 47 | 1015.9 |
| 20260506161346 | 17 | 265 | 3.2 | 3.2 | 0.00 | 0.00 | 0.00 | 47 | 1015.9 |
| 20260506160844 | 17 | 203 | 1.6 | 3.2 | 0.00 | 0.00 | 0.00 | 47 | 1015.9 |
| 20260506160344 | 17 | 212 | 1.6 | 1.6 | 0.00 | 0.00 | 0.00 | 46 | 1015.9 |
| 20260506155845 | 17 | 222 | 1.6 | 1.6 | 0.00 | 0.00 | 0.00 | 46 | 1015.9 |
| 20260506155345 | 17 | 235 | 1.6 | 1.6 | 0.00 | 0.00 | 0.00 | 45 | 1015.9 |
| 20260506154845 | 17 | 237 | 1.6 | 1.6 | 0.00 | 0.00 | 0.00 | 45 | 1015.9 |
| 20260506154344 | 17 | 221 | 0.0 | 0.0 | 0.00 | 0.00 | 0.00 | 45 | 1015.9 |
| 20260506153845 | 17 | 270 | 1.6 | 1.6 | 0.00 | 0.00 | 0.00 | 44 | 1015.6 |
| 20260506153344 | 18 | 226 | 1.6 | 1.6 | 0.00 | 0.00 | 0.00 | 44 | 1015.6 |
| 20260506152844 | 18 | 238 | 1.6 | 1.6 | 0.00 | 0.00 | 0.00 | 44 | 1015.9 |
| 20260506152345 | 18 | 209 | 0.0 | 0.0 | 0.00 | 0.00 | 0.00 | 43 | 1015.6 |
| 20260506151844 | 18 | 217 | 1.6 | 0.0 | 0.00 | 0.00 | 0.00 | 42 | 1015.9 |
| 20260506151346 | 19 | 239 | 0.0 | 0.0 | 0.00 | 0.00 | 0.00 | 41 | 1015.6 |
| 20260506150844 | 20 | 263 | 1.6 | 1.6 | 0.00 | 0.00 | 0.00 | 40 | 1015.6 |
| 20260506150346 | 20 | 142 | 1.6 | 3.2 | 0.00 | 0.00 | 0.00 | 39 | 1015.6 |
| 20260506145844 | 20 | 198 | 1.6 | 1.6 | 0.00 | 0.00 | 0.00 | 40 | 1015.6 |
| 20260506145345 | 20 | 195 | 3.2 | 4.8 | 0.00 | 0.00 | 0.00 | 40 | 1015.6 |
| 20260506144846 | 20 | 252 | 3.2 | 4.8 | 0.00 | 0.00 | 0.00 | 39 | 1015.6 |
| 20260506144346 | 20 | 234 | 1.6 | 1.6 | 0.00 | 0.00 | 0.00 | 40 | 1015.6 |
| 20260506143845 | 20 | 248 | 3.2 | 4.8 | 0.00 | 0.00 | 0.00 | 40 | 1015.6 |
| 20260506143346 | 20 | 267 | 1.6 | 1.6 | 0.00 | 0.00 | 0.00 | 39 | 1015.6 |
| 20260506142844 | 20 | 223 | 1.6 | 1.6 | 0.00 | 0.00 | 0.00 | 38 | 1015.6 |
| 20260506142344 | 20 | 236 | 1.6 | 1.6 | 0.00 | 0.00 | 0.00 | 38 | 1015.9 |
| 20260506141845 | 20 | 200 | 1.6 | 4.8 | 0.00 | 0.00 | 0.00 | 37 | 1015.6 |
| 20260506141345 | 20 | 168 | 1.6 | 1.6 | 0.00 | 0.00 | 0.00 | 37 | 1015.6 |
| 20260506140845 | 20 | 292 | 1.6 | 0.0 | 0.00 | 0.00 | 0.00 | 37 | 1015.6 |
| 20260506140347 | 20 | 271 | 1.6 | 1.6 | 0.00 | 0.00 | 0.00 | 38 | 1015.6 |
| 20260506135845 | 20 | 22 | 1.6 | 1.6 | 0.00 | 0.00 | 0.00 | 38 | 1015.6 |
| 20260506135345 | 20 | 215 | 0.0 | 0.0 | 0.00 | 0.00 | 0.00 | 37 | 1015.6 |
| 20260506134845 | 20 | 201 | 1.6 | 0.0 | 0.00 | 0.00 | 0.00 | 39 | 1015.2 |
| 20260506134344 | 20 | 324 | 3.2 | 3.2 | 0.00 | 0.00 | 0.00 | 37 | 1015.6 |
| 20260506133846 | 20 | 242 | 1.6 | 3.2 | 0.00 | 0.00 | 0.00 | 36 | 1015.6 |
| 20260506133345 | 20 | 229 | 3.2 | 4.8 | 0.00 | 0.00 | 0.00 | 36 | 1015.6 |
| 20260506132846 | 20 | 327 | 3.2 | 3.2 | 0.00 | 0.00 | 0.00 | 38 | 1015.6 |
| 20260506132344 | 19 | 356 | 1.6 | 1.6 | 0.00 | 0.00 | 0.00 | 38 | 1015.6 |
| 20260506131846 | 19 | 342 | 1.6 | 3.2 | 0.00 | 0.00 | 0.00 | 38 | 1015.6 |
| 20260506131345 | 19 | 280 | 0.0 | 0.0 | 0.00 | 0.00 | 0.00 | 37 | 1015.6 |
| 20260506130846 | 19 | 86 | 4.8 | 9.7 | 0.00 | 0.00 | 0.00 | 35 | 1015.6 |
| 20260506130344 | 20 | 44 | 3.2 | 3.2 | 0.00 | 0.00 | 0.00 | 34 | 1015.6 |
| 20260506125844 | 20 | 326 | 1.6 | 1.6 | 0.00 | 0.00 | 0.00 | 34 | 1015.9 |
| 20260506125345 | 20 | 32 | 1.6 | 1.6 | 0.00 | 0.00 | 0.00 | 33 | 1015.9 |
| 20260506124844 | 20 | 0 | 1.6 | 3.2 | 0.00 | 0.00 | 0.00 | 33 | 1015.9 |
| 20260506124345 | 20 | 68 | 3.2 | 3.2 | 0.00 | 0.00 | 0.00 | 32 | 1015.9 |
| 20260506123845 | 20 | 295 | 3.2 | 3.2 | 0.00 | 0.00 | 0.00 | 32 | 1015.9 |
| 20260506123348 | 20 | 174 | 0.0 | 0.0 | 0.00 | 0.00 | 0.00 | 32 | 1015.9 |
| 20260506122844 | 20 | 71 | 0.0 | 0.0 | 0.00 | 0.00 | 0.00 | 31 | 1015.9 |
| 20260506122344 | 21 | 322 | 1.6 | 1.6 | 0.00 | 0.00 | 0.00 | 31 | 1015.9 |
| 20260506121844 | 21 | 248 | 1.6 | 1.6 | 0.00 | 0.00 | 0.00 | 30 | 1015.9 |